Time;durP1;ratioP1;P1;durP2;ratioP2;P2;SDS_P1;SDS_P2;PMS_P1;PMS_P2;Temp;Humidity;BMP_temperature;BMP_pressure;BME280_temperature;BME280_humidity;BME280_pressure;Samples;Min_cycle;Max_cycle;Signal;HPM_P1;HPM_P2
2022/01/04 00:00:18;;;;;;;1.65;1.00;;;9.50;99.90;;;;;;4995671;28;20034;-85
2022/01/04 00:02:43;;;;;;;2.85;0.90;;;9.50;99.90;;;;;;4997913;28;20499;-85
2022/01/04 00:05:10;;;;;;;1.65;0.80;;;9.50;99.90;;;;;;5002098;28;20095;-85
2022/01/04 00:07:36;;;;;;;0.82;0.75;;;9.50;99.90;;;;;;4994831;28;20046;-86
2022/01/04 00:10:02;;;;;;;1.10;0.70;;;9.50;99.90;;;;;;4978257;28;20537;-85
2022/01/04 00:15:12;;;;;;;1.13;0.95;;;9.50;99.90;;;;;;4991715;28;20088;-85
2022/01/04 00:17:38;;;;;;;2.00;1.40;;;9.50;99.90;;;;;;4988675;28;20542;-85
2022/01/04 00:20:09;;;;;;;1.20;1.10;;;9.50;99.90;;;;;;4994992;28;20042;-84
2022/01/04 00:22:35;;;;;;;1.52;1.10;;;9.50;99.90;;;;;;5007164;28;20034;-84
2022/01/04 00:25:01;;;;;;;2.08;1.38;;;9.50;99.90;;;;;;5010414;28;20057;-85
2022/01/04 00:27:29;;;;;;;2.50;1.40;;;9.50;99.90;;;;;;5010437;28;20060;-84
2022/01/04 00:29:55;;;;;;;2.15;1.52;;;9.50;99.90;;;;;;5000396;28;20036;-84
2022/01/04 00:32:24;;;;;;;2.97;1.70;;;9.50;99.90;;;;;;4978461;28;20036;-85
2022/01/04 00:34:52;;;;;;;6.75;1.90;;;9.50;99.90;;;;;;4993860;28;20129;-85
2022/01/04 00:37:18;;;;;;;5.35;1.88;;;9.50;99.90;;;;;;4994714;28;20029;-84
2022/01/04 00:39:46;;;;;;;2.58;2.08;;;9.60;99.90;;;;;;5010573;28;20479;-85
2022/01/04 00:42:12;;;;;;;2.35;1.67;;;9.60;99.90;;;;;;4989477;28;20026;-85
2022/01/04 00:44:41;;;;;;;2.60;1.85;;;9.60;99.90;;;;;;4993917;28;20088;-84
2022/01/04 00:47:08;;;;;;;3.70;1.85;;;9.60;99.90;;;;;;5010386;28;20061;-85
2022/01/04 00:49:34;;;;;;;2.53;1.70;;;9.60;99.90;;;;;;5010086;28;20030;-84
2022/01/04 00:52:02;;;;;;;4.53;1.80;;;9.60;99.90;;;;;;5010715;28;20038;-85
2022/01/04 00:54:28;;;;;;;4.07;2.00;;;9.60;99.90;;;;;;4993926;28;20060;-85
2022/01/04 00:56:59;;;;;;;3.42;2.05;;;9.60;99.90;;;;;;5010163;28;20026;-84
2022/01/04 00:59:25;;;;;;;3.22;1.85;;;9.60;99.90;;;;;;5010146;28;20047;-85
2022/01/04 01:01:51;;;;;;;4.28;2.25;;;9.60;99.90;;;;;;4974950;28;20031;-85
2022/01/04 01:04:19;;;;;;;4.90;1.88;;;9.60;99.90;;;;;;4963701;28;20045;-85
2022/01/04 01:06:46;;;;;;;3.60;2.05;;;9.60;99.90;;;;;;4981453;28;20095;-85
2022/01/04 01:09:11;;;;;;;5.90;1.90;;;9.50;99.90;;;;;;5010164;28;20038;-86
2022/01/04 01:11:37;;;;;;;2.78;1.75;;;9.50;99.90;;;;;;5007584;28;20038;-85
2022/01/04 01:14:04;;;;;;;4.30;1.98;;;9.50;99.90;;;;;;5002812;28;20018;-84
2022/01/04 01:16:30;;;;;;;2.90;1.60;;;9.50;99.90;;;;;;5011583;28;20034;-85
2022/01/04 01:18:55;;;;;;;3.15;1.90;;;9.50;99.90;;;;;;4994795;28;20033;-85
2022/01/04 01:21:21;;;;;;;5.30;2.20;;;9.50;99.90;;;;;;5013184;28;20097;-85
2022/01/04 01:23:47;;;;;;;4.63;1.75;;;9.50;99.90;;;;;;5012759;28;20502;-85
2022/01/04 01:26:15;;;;;;;7.20;2.15;;;9.50;99.90;;;;;;5011085;28;20044;-85
2022/01/04 01:28:41;;;;;;;6.55;1.73;;;9.50;99.90;;;;;;4996561;28;20517;-85
2022/01/04 01:31:11;;;;;;;2.58;1.85;;;9.50;99.90;;;;;;5008556;28;20029;-85
2022/01/04 01:33:37;;;;;;;3.45;2.08;;;9.50;99.90;;;;;;4996584;28;20026;-85
2022/01/04 01:36:03;;;;;;;2.65;1.80;;;9.50;99.90;;;;;;4979676;28;20042;-86
2022/01/04 01:38:28;;;;;;;5.03;1.98;;;9.50;99.90;;;;;;4979939;28;20026;-85
2022/01/04 01:40:54;;;;;;;3.75;2.33;;;9.50;99.90;;;;;;4980415;28;20026;-85
2022/01/04 01:43:20;;;;;;;3.80;2.45;;;9.50;99.90;;;;;;5004788;28;20033;-86
2022/01/04 01:45:46;;;;;;;6.88;2.25;;;9.50;99.90;;;;;;4982669;28;20761;-84
2022/01/04 01:48:15;;;;;;;6.63;2.17;;;9.50;99.90;;;;;;4988170;28;20506;-85
2022/01/04 01:50:41;;;;;;;4.28;2.10;;;9.40;99.90;;;;;;5013418;28;20038;-85
2022/01/04 01:53:07;;;;;;;4.28;1.95;;;9.40;99.90;;;;;;4983480;28;20508;-85
2022/01/04 01:55:33;;;;;;;4.90;2.33;;;9.50;99.90;;;;;;4991792;28;20038;-85
2022/01/04 01:57:59;;;;;;;5.68;2.22;;;9.50;99.90;;;;;;5004204;28;20064;-86
2022/01/04 02:00:27;;;;;;;4.97;2.47;;;9.40;99.90;;;;;;4997391;28;20406;-85
2022/01/04 02:02:57;;;;;;;6.50;2.30;;;9.40;99.90;;;;;;4994706;28;20034;-85
2022/01/04 02:05:23;;;;;;;5.78;2.78;;;9.40;99.90;;;;;;5013789;28;20076;-85
2022/01/04 02:07:51;;;;;;;4.82;2.67;;;9.40;99.90;;;;;;4996112;28;20037;-86
2022/01/04 02:10:17;;;;;;;4.97;2.45;;;9.40;99.90;;;;;;4992573;28;20054;-86
2022/01/04 02:12:46;;;;;;;7.57;2.97;;;9.40;99.90;;;;;;4970249;28;20513;-86
2022/01/04 02:15:18;;;;;;;6.97;2.60;;;9.40;99.90;;;;;;5005703;28;20048;-86
2022/01/04 02:17:45;;;;;;;4.93;2.13;;;9.40;99.90;;;;;;5008310;28;20033;-86
2022/01/04 02:20:12;;;;;;;4.85;2.40;;;9.40;99.90;;;;;;4993958;28;20034;-85
2022/01/04 02:22:38;;;;;;;6.07;2.72;;;9.30;99.90;;;;;;5012648;28;20390;-85
2022/01/04 02:25:08;;;;;;;4.72;2.45;;;9.30;99.90;;;;;;5022602;23;20024;-79
2022/01/04 02:27:36;;;;;;;7.05;2.30;;;9.30;99.90;;;;;;5010858;28;20113;-79
2022/01/04 02:30:05;;;;;;;5.45;2.42;;;9.30;99.90;;;;;;4997173;28;20477;-80
2022/01/04 02:32:30;;;;;;;4.13;2.03;;;9.30;99.90;;;;;;4990157;28;20100;-80
2022/01/04 02:34:56;;;;;;;7.18;2.20;;;9.30;99.90;;;;;;4977808;28;20529;-80
2022/01/04 02:37:27;;;;;;;3.88;2.40;;;9.30;99.90;;;;;;4990638;28;20118;-79
2022/01/04 02:39:53;;;;;;;4.13;1.88;;;9.30;99.90;;;;;;4960131;28;20035;-79
2022/01/04 02:42:20;;;;;;;3.05;2.05;;;9.30;99.90;;;;;;4991933;28;20041;-80
2022/01/04 02:44:48;;;;;;;4.03;2.40;;;9.30;99.90;;;;;;4986940;28;20061;-80
2022/01/04 02:47:15;;;;;;;3.30;2.20;;;9.30;99.90;;;;;;4958521;28;20035;-79
2022/01/04 02:49:41;;;;;;;4.25;2.25;;;9.30;99.90;;;;;;4986177;28;20035;-80
2022/01/04 02:52:07;;;;;;;5.00;2.03;;;9.20;99.90;;;;;;4986426;28;20026;-80
2022/01/04 02:54:33;;;;;;;6.47;2.00;;;9.30;99.90;;;;;;4985983;28;20467;-80
2022/01/04 02:57:00;;;;;;;3.90;2.17;;;9.20;99.90;;;;;;4993213;28;20165;-80
2022/01/04 02:59:26;;;;;;;7.93;2.22;;;9.30;99.90;;;;;;4982433;28;20030;-80
2022/01/04 03:01:52;;;;;;;2.38;1.83;;;9.20;99.90;;;;;;4987878;28;20035;-80
2022/01/04 03:04:17;;;;;;;4.30;2.05;;;9.20;99.90;;;;;;4961505;28;20481;-80
2022/01/04 03:06:47;;;;;;;3.88;2.10;;;9.20;99.90;;;;;;4973232;28;20405;-80
2022/01/04 03:09:15;;;;;;;3.03;2.10;;;9.20;99.90;;;;;;4997909;28;20109;-80
2022/01/04 03:11:43;;;;;;;2.83;1.77;;;9.20;99.90;;;;;;4989427;28;20030;-80
2022/01/04 03:14:09;;;;;;;5.03;2.35;;;9.20;99.90;;;;;;4960400;28;20034;-80
2022/01/04 03:16:35;;;;;;;4.47;1.83;;;9.20;99.90;;;;;;4989634;28;20027;-80
2022/01/04 03:19:09;;;;;;;3.88;1.90;;;9.20;99.90;;;;;;4964424;28;20464;-80
2022/01/04 03:21:40;;;;;;;5.20;1.90;;;9.20;99.90;;;;;;4975992;28;20102;-80
2022/01/04 03:24:08;;;;;;;5.00;1.77;;;9.20;99.90;;;;;;4977123;28;20038;-80
2022/01/04 03:26:35;;;;;;;4.03;1.92;;;9.20;99.90;;;;;;4983920;28;20089;-80
2022/01/04 03:29:03;;;;;;;2.13;1.40;;;9.20;99.90;;;;;;4973460;28;20061;-81
2022/01/04 03:31:29;;;;;;;3.63;2.13;;;9.20;99.90;;;;;;4968786;28;20046;-80
2022/01/04 03:33:55;;;;;;;3.50;1.60;;;9.20;99.90;;;;;;4993182;28;20030;-79
2022/01/04 03:36:23;;;;;;;2.38;1.42;;;9.20;99.90;;;;;;4968656;28;20035;-79
2022/01/04 03:38:54;;;;;;;3.38;1.50;;;9.20;99.90;;;;;;4956706;28;20023;-80
2022/01/04 03:41:22;;;;;;;2.97;1.75;;;9.20;99.90;;;;;;4964998;28;20030;-80
2022/01/04 03:43:49;;;;;;;3.25;2.03;;;9.10;99.90;;;;;;4992557;28;20018;-79
2022/01/04 03:46:14;;;;;;;3.00;1.63;;;9.10;99.90;;;;;;4986335;28;20045;-80
2022/01/04 03:48:40;;;;;;;3.05;1.35;;;9.10;99.90;;;;;;4972977;28;20038;-80
2022/01/04 03:51:07;;;;;;;4.53;1.60;;;9.10;99.90;;;;;;4965877;28;20034;-79
2022/01/04 03:53:34;;;;;;;3.67;1.65;;;9.10;99.90;;;;;;4975798;28;20031;-80
2022/01/04 03:56:00;;;;;;;5.03;1.65;;;9.10;99.90;;;;;;4992063;28;20603;-80
2022/01/04 03:58:26;;;;;;;2.83;1.30;;;9.10;99.90;;;;;;4976388;28;20061;-80
2022/01/04 04:00:51;;;;;;;2.28;1.40;;;9.10;99.90;;;;;;4990317;28;20125;-80
2022/01/04 04:03:18;;;;;;;1.88;1.30;;;9.10;99.90;;;;;;4972339;28;20031;-80
2022/01/04 04:05:44;;;;;;;1.77;1.30;;;9.10;99.90;;;;;;4973497;28;20057;-80
2022/01/04 04:08:13;;;;;;;3.55;1.35;;;9.10;99.90;;;;;;4990966;28;20057;-80
2022/01/04 04:10:38;;;;;;;3.22;1.58;;;9.10;99.90;;;;;;4988970;28;20034;-80
2022/01/04 04:13:04;;;;;;;1.80;1.13;;;9.10;99.90;;;;;;4958457;28;20076;-79
2022/01/04 04:15:31;;;;;;;1.92;1.10;;;9.10;99.90;;;;;;4991671;28;20316;-80
2022/01/04 04:17:57;;;;;;;1.73;1.35;;;9.10;99.90;;;;;;4991855;28;20034;-79
2022/01/04 04:20:22;;;;;;;2.70;1.98;;;9.10;99.90;;;;;;4968861;28;20030;-80
2022/01/04 04:22:48;;;;;;;2.45;1.27;;;9.10;99.90;;;;;;4988600;28;20363;-80
2022/01/04 04:25:14;;;;;;;2.70;1.33;;;9.10;99.90;;;;;;4975198;28;20124;-80
2022/01/04 04:27:40;;;;;;;1.48;1.10;;;9.10;99.90;;;;;;4969100;28;20054;-80
2022/01/04 04:30:07;;;;;;;2.67;1.35;;;9.10;99.90;;;;;;4956217;28;20038;-80
2022/01/04 04:32:33;;;;;;;4.97;1.10;;;9.10;99.90;;;;;;4963184;28;20690;-80
2022/01/04 04:34:58;;;;;;;2.38;1.23;;;9.10;99.90;;;;;;4956312;28;20086;-79
2022/01/04 04:37:24;;;;;;;1.92;1.15;;;9.10;99.90;;;;;;4972252;28;20042;-80
2022/01/04 04:39:50;;;;;;;0.80;0.80;;;9.00;99.90;;;;;;4991401;28;20152;-80
2022/01/04 04:42:16;;;;;;;2.33;1.10;;;9.10;99.90;;;;;;4966575;28;20037;-80
2022/01/04 04:44:44;;;;;;;2.45;1.33;;;9.10;99.90;;;;;;4990809;28;20033;-80
2022/01/04 04:47:09;;;;;;;2.10;1.02;;;9.10;99.90;;;;;;4972003;28;20089;-80
2022/01/04 04:49:35;;;;;;;3.00;1.15;;;9.10;99.90;;;;;;4974670;28;20038;-80
2022/01/04 04:52:01;;;;;;;1.25;0.85;;;9.10;99.90;;;;;;4971291;28;20027;-81
2022/01/04 04:54:27;;;;;;;1.67;0.80;;;9.10;99.90;;;;;;4966508;28;20133;-80
2022/01/04 04:56:53;;;;;;;4.15;0.98;;;9.10;99.90;;;;;;4975054;28;20033;-80
2022/01/04 04:59:19;;;;;;;2.55;0.80;;;9.10;99.90;;;;;;4990191;28;20034;-81
2022/01/04 05:01:45;;;;;;;2.00;0.90;;;9.10;99.90;;;;;;4991217;28;20627;-79
2022/01/04 05:04:10;;;;;;;1.50;0.70;;;9.10;99.90;;;;;;4971683;28;20057;-80
2022/01/04 05:06:38;;;;;;;0.90;0.70;;;9.10;99.90;;;;;;4991337;28;20026;-79
2022/01/04 05:09:04;;;;;;;2.17;0.90;;;9.10;99.90;;;;;;4973795;28;20066;-80
2022/01/04 05:11:30;;;;;;;2.35;0.80;;;9.10;99.90;;;;;;4956080;28;20034;-81
2022/01/04 05:13:56;;;;;;;1.33;0.80;;;9.10;99.90;;;;;;4955801;28;20027;-81
2022/01/04 05:16:22;;;;;;;2.60;0.70;;;9.10;99.90;;;;;;4961038;28;20061;-80
2022/01/04 05:18:47;;;;;;;1.70;0.60;;;9.10;99.90;;;;;;4970999;28;20121;-80
2022/01/04 05:21:13;;;;;;;1.02;0.65;;;9.10;99.90;;;;;;4978270;28;20030;-80
2022/01/04 05:23:39;;;;;;;1.05;0.70;;;9.20;99.90;;;;;;4974954;28;20026;-81
2022/01/04 05:26:04;;;;;;;1.08;0.98;;;9.20;99.90;;;;;;4973858;28;20038;-81
2022/01/04 05:28:30;;;;;;;0.60;0.50;;;9.10;99.90;;;;;;4990068;28;20041;-81
2022/01/04 05:30:56;;;;;;;1.33;0.70;;;9.20;99.90;;;;;;4962512;28;20039;-80
2022/01/04 05:33:21;;;;;;;1.25;0.70;;;9.20;99.90;;;;;;4955546;28;20035;-81
2022/01/04 05:35:48;;;;;;;1.05;0.70;;;9.20;99.90;;;;;;4954887;28;20042;-81
2022/01/04 05:38:14;;;;;;;1.30;0.70;;;9.20;99.90;;;;;;4979067;28;20037;-81
2022/01/04 05:40:43;;;;;;;1.30;0.85;;;9.20;99.90;;;;;;4974032;28;20034;-81
2022/01/04 05:43:09;;;;;;;4.32;0.40;;;9.20;99.90;;;;;;4973993;28;20037;-80
2022/01/04 05:45:34;;;;;;;0.95;0.60;;;9.20;99.90;;;;;;4982601;28;20026;-81
2022/01/04 05:48:00;;;;;;;0.85;0.50;;;9.20;99.90;;;;;;4954412;28;20031;-81
2022/01/04 05:50:29;;;;;;;0.98;0.70;;;9.20;99.90;;;;;;4960089;28;20077;-80
2022/01/04 05:52:55;;;;;;;0.70;0.60;;;9.20;99.90;;;;;;4979006;28;20030;-81
2022/01/04 05:55:20;;;;;;;0.50;0.40;;;9.20;99.90;;;;;;4954509;28;20034;-81
2022/01/04 05:57:46;;;;;;;0.55;0.40;;;9.20;99.90;;;;;;4954743;28;20130;-81
2022/01/04 06:00:12;;;;;;;0.90;0.63;;;9.20;99.90;;;;;;4967125;28;20105;-81
2022/01/04 06:02:41;;;;;;;1.73;0.75;;;9.20;99.90;;;;;;4968108;28;20027;-81
2022/01/04 06:05:08;;;;;;;0.68;0.50;;;9.20;99.90;;;;;;4973480;28;20069;-81
2022/01/04 06:07:34;;;;;;;0.63;0.50;;;9.20;99.90;;;;;;4970288;28;20043;-80
2022/01/04 06:10:01;;;;;;;0.60;0.43;;;9.20;99.90;;;;;;4985129;28;20038;-81
2022/01/04 06:15:14;;;;;;;0.90;0.60;;;9.20;99.90;;;;;;4970407;28;20046;-81
2022/01/04 06:17:46;;;;;;;1.65;0.68;;;9.20;99.90;;;;;;4970378;28;20054;-81
2022/01/04 06:20:19;;;;;;;2.15;0.68;;;9.20;99.90;;;;;;4960762;28;20027;-80
2022/01/04 06:22:45;;;;;;;1.13;0.65;;;9.20;99.90;;;;;;4974789;28;20035;-80
2022/01/04 06:25:13;;;;;;;2.00;0.68;;;9.30;99.90;;;;;;4964008;28;20366;-81
2022/01/04 06:27:42;;;;;;;0.77;0.70;;;9.30;99.90;;;;;;4970653;28;20042;-81
2022/01/04 06:30:09;;;;;;;0.50;0.50;;;9.30;99.90;;;;;;4967452;28;20030;-80
2022/01/04 06:32:36;;;;;;;0.47;0.45;;;9.30;99.90;;;;;;4964208;28;20042;-81
2022/01/04 06:35:02;;;;;;;0.65;0.60;;;9.30;99.90;;;;;;4971992;28;20035;-81
2022/01/04 06:37:29;;;;;;;1.83;0.90;;;9.30;99.90;;;;;;4973320;28;20026;-80
2022/01/04 06:39:54;;;;;;;0.47;0.47;;;9.30;99.90;;;;;;4969306;28;20043;-81
2022/01/04 06:42:20;;;;;;;2.28;0.73;;;9.30;99.90;;;;;;4964793;28;20285;-80
2022/01/04 06:44:46;;;;;;;1.67;0.90;;;9.30;99.90;;;;;;4971472;28;20041;-81
2022/01/04 06:47:12;;;;;;;0.65;0.65;;;9.30;99.90;;;;;;4955560;28;20350;-80
2022/01/04 06:49:37;;;;;;;1.55;0.85;;;9.30;99.90;;;;;;4955341;28;20031;-81
2022/01/04 06:52:05;;;;;;;0.95;0.60;;;9.30;99.90;;;;;;4970621;28;20055;-80
2022/01/04 06:54:30;;;;;;;1.20;0.70;;;9.30;99.90;;;;;;4953920;28;20035;-80
2022/01/04 06:56:56;;;;;;;1.30;0.80;;;9.30;99.90;;;;;;4954458;28;20043;-81
2022/01/04 06:59:22;;;;;;;1.45;0.80;;;9.30;99.90;;;;;;4978027;28;20087;-81
2022/01/04 07:01:48;;;;;;;2.00;0.98;;;9.30;99.90;;;;;;4960841;28;20031;-81
2022/01/04 07:04:14;;;;;;;0.52;0.45;;;9.30;99.90;;;;;;4969976;28;20474;-81
2022/01/04 07:06:40;;;;;;;1.02;0.65;;;9.30;99.90;;;;;;4953662;28;20031;-81
2022/01/04 07:09:07;;;;;;;1.13;0.77;;;9.30;99.90;;;;;;4957607;28;20117;-80
2022/01/04 07:11:33;;;;;;;0.50;0.50;;;9.30;99.90;;;;;;4973098;28;20088;-81
2022/01/04 07:14:00;;;;;;;1.70;0.85;;;9.30;99.90;;;;;;4984778;28;20027;-81
2022/01/04 07:16:26;;;;;;;1.48;0.73;;;9.30;99.90;;;;;;4982802;28;20037;-81
2022/01/04 07:18:52;;;;;;;2.35;0.57;;;9.30;99.90;;;;;;4971879;28;20062;-81
2022/01/04 07:21:19;;;;;;;0.88;0.60;;;9.30;99.90;;;;;;4973421;28;20050;-81
2022/01/04 07:23:48;;;;;;;0.75;0.68;;;9.30;99.90;;;;;;4976993;28;20022;-81
2022/01/04 07:26:15;;;;;;;1.08;0.70;;;9.30;99.90;;;;;;4989516;28;20526;-81
2022/01/04 07:28:42;;;;;;;0.90;0.60;;;9.30;99.90;;;;;;4974827;28;20544;-80
2022/01/04 07:31:08;;;;;;;1.70;1.00;;;9.30;99.90;;;;;;4973597;28;20031;-81
2022/01/04 07:33:35;;;;;;;1.15;0.77;;;9.30;99.90;;;;;;4992658;28;20038;-81
2022/01/04 07:36:01;;;;;;;2.85;0.60;;;9.40;99.90;;;;;;4992606;28;20037;-80
2022/01/04 07:38:26;;;;;;;0.95;0.68;;;9.30;99.90;;;;;;4992571;28;20022;-81
2022/01/04 07:40:55;;;;;;;0.77;0.68;;;9.30;99.90;;;;;;4991933;28;20034;-81
2022/01/04 07:43:21;;;;;;;0.90;0.55;;;9.40;99.90;;;;;;4965872;28;20034;-81
2022/01/04 07:45:46;;;;;;;1.55;0.80;;;9.40;99.90;;;;;;4967155;28;20034;-81
2022/01/04 07:48:12;;;;;;;1.05;0.70;;;9.40;99.90;;;;;;4957878;28;20031;-80
2022/01/04 07:50:40;;;;;;;1.05;0.47;;;9.40;99.90;;;;;;4970348;28;20406;-81
2022/01/04 07:53:06;;;;;;;0.93;0.65;;;9.40;99.90;;;;;;4966063;28;20513;-80
2022/01/04 07:55:33;;;;;;;1.17;0.80;;;9.40;99.90;;;;;;4972308;28;20464;-82
2022/01/04 07:57:59;;;;;;;0.63;0.50;;;9.40;99.90;;;;;;4989610;28;20126;-80
2022/01/04 08:00:25;;;;;;;2.25;0.77;;;9.40;99.90;;;;;;4988069;28;20018;-80
2022/01/04 08:02:52;;;;;;;1.50;0.75;;;9.40;99.90;;;;;;4991249;28;20015;-79
2022/01/04 08:05:18;;;;;;;0.75;0.70;;;9.40;99.90;;;;;;4975801;28;20129;-80
2022/01/04 08:07:44;;;;;;;1.63;0.90;;;9.40;99.90;;;;;;4975738;28;20038;-80
2022/01/04 08:10:11;;;;;;;1.73;0.75;;;9.40;99.90;;;;;;4975704;28;20034;-80
2022/01/04 08:12:37;;;;;;;2.42;0.70;;;9.50;99.90;;;;;;4968752;28;20053;-80
2022/01/04 08:15:07;;;;;;;2.00;0.65;;;9.50;99.90;;;;;;4956263;28;20035;-81
2022/01/04 08:17:33;;;;;;;;;;;9.50;99.90;;;;;;4958025;28;20496;-81
2022/01/04 08:20:00;;;;;;;1.25;0.60;;;9.50;99.90;;;;;;4990037;28;19921;-81
2022/01/04 08:22:31;;;;;;;2.40;0.68;;;9.50;99.90;;;;;;4991609;28;20117;-81
2022/01/04 08:24:57;;;;;;;0.50;0.50;;;9.50;99.90;;;;;;4987598;28;20027;-81
2022/01/04 08:27:23;;;;;;;2.55;0.70;;;9.60;99.90;;;;;;4958806;28;20505;-80
2022/01/04 08:29:49;;;;;;;1.05;0.60;;;9.50;99.90;;;;;;4956483;28;20077;-81
2022/01/04 08:32:15;;;;;;;0.98;0.70;;;9.60;99.90;;;;;;4972018;28;20046;-81
2022/01/04 08:34:42;;;;;;;1.50;0.88;;;9.60;99.90;;;;;;4972015;28;20513;-80
2022/01/04 08:37:07;;;;;;;0.63;0.50;;;9.60;99.90;;;;;;4971975;28;20073;-80
2022/01/04 08:39:34;;;;;;;1.25;0.82;;;9.60;99.90;;;;;;4955933;28;20027;-80
2022/01/04 08:42:01;;;;;;;1.00;0.68;;;9.60;99.90;;;;;;4971182;28;20026;-80
2022/01/04 08:44:28;;;;;;;2.05;0.95;;;9.60;99.90;;;;;;4980887;28;20041;-81
2022/01/04 08:46:54;;;;;;;3.10;0.95;;;9.60;99.90;;;;;;4973856;28;20035;-80
2022/01/04 08:49:23;;;;;;;0.75;0.65;;;9.60;99.90;;;;;;4973857;28;20034;-80
2022/01/04 08:51:49;;;;;;;1.13;0.80;;;9.60;99.90;;;;;;4966641;28;20038;-80
2022/01/04 08:54:14;;;;;;;0.95;0.75;;;9.70;99.90;;;;;;4971468;28;20030;-81
2022/01/04 08:56:41;;;;;;;1.70;0.80;;;9.70;99.90;;;;;;4955719;28;20035;-81
2022/01/04 08:59:08;;;;;;;1.50;0.70;;;9.70;99.90;;;;;;4982820;28;20023;-81
2022/01/04 09:01:35;;;;;;;0.65;0.60;;;9.70;99.90;;;;;;4975299;28;20038;-80
2022/01/04 09:04:01;;;;;;;0.93;0.70;;;9.70;99.90;;;;;;4964594;28;20093;-80
2022/01/04 09:06:28;;;;;;;2.00;0.90;;;9.70;99.90;;;;;;4971269;28;20037;-81
2022/01/04 09:08:55;;;;;;;0.73;0.60;;;9.70;99.90;;;;;;4977366;28;20057;-81
2022/01/04 09:11:22;;;;;;;2.15;1.20;;;9.70;99.90;;;;;;4974937;28;20347;-80
2022/01/04 09:13:50;;;;;;;3.03;0.95;;;9.70;99.90;;;;;;4974974;28;20565;-80
2022/01/04 09:18:51;;;;;;;1.35;1.02;;;9.80;99.90;;;;;;4988831;28;20041;-80
2022/01/04 09:21:19;;;;;;;1.65;0.90;;;9.80;99.90;;;;;;4975701;28;20564;-80
2022/01/04 09:23:47;;;;;;;1.80;0.98;;;9.80;99.90;;;;;;4990757;28;20033;-80
2022/01/04 09:26:14;;;;;;;1.92;1.20;;;9.80;99.90;;;;;;4974433;28;20034;-80
2022/01/04 09:28:40;;;;;;;2.83;1.40;;;9.80;99.90;;;;;;4965376;28;20714;-80
2022/01/04 09:31:06;;;;;;;1.80;1.20;;;9.80;99.90;;;;;;4971483;28;20053;-80
2022/01/04 09:33:32;;;;;;;4.35;1.35;;;9.80;99.90;;;;;;4954951;28;20082;-80
2022/01/04 09:35:59;;;;;;;1.55;0.98;;;9.80;99.90;;;;;;4955175;28;20034;-81
2022/01/04 09:38:25;;;;;;;3.67;1.33;;;9.80;99.90;;;;;;4966535;28;20038;-80
2022/01/04 09:40:53;;;;;;;1.85;1.13;;;9.80;99.90;;;;;;4955682;28;20058;-81
2022/01/04 09:43:20;;;;;;;1.10;1.00;;;9.80;99.90;;;;;;4973502;28;20023;-81
2022/01/04 09:45:47;;;;;;;1.42;1.10;;;9.80;99.90;;;;;;4955176;28;20038;-80
2022/01/04 09:48:13;;;;;;;7.93;1.25;;;9.80;99.90;;;;;;4955438;28;20035;-80
2022/01/04 09:50:41;;;;;;;1.33;0.93;;;9.80;99.90;;;;;;4954941;28;20061;-81
2022/01/04 09:53:09;;;;;;;2.33;1.02;;;9.70;99.90;;;;;;4954851;28;20034;-81
2022/01/04 09:55:42;;;;;;;1.20;0.50;;;9.80;99.90;;;;;;4955120;28;20660;-81
2022/01/04 09:58:10;;;;;;;3.50;0.20;;;9.50;99.90;;;;;;4949585;28;20128;-81
2022/01/04 10:00:39;;;;;;;0.20;0.20;;;9.20;99.90;;;;;;4990447;28;20026;-81
2022/01/04 10:03:10;;;;;;;0.10;0.10;;;9.00;99.90;;;;;;5006648;28;20113;-82
2022/01/04 10:05:36;;;;;;;2.97;0.30;;;8.70;99.90;;;;;;4978499;28;20030;-81
2022/01/04 10:08:05;;;;;;;0.55;0.25;;;8.40;99.90;;;;;;4961742;28;20030;-81
2022/01/04 10:10:32;;;;;;;0.28;0.17;;;8.20;99.90;;;;;;4990223;28;20049;-81
2022/01/04 10:13:06;;;;;;;0.63;0.20;;;8.10;99.90;;;;;;4973236;28;20030;-81
2022/01/04 10:15:47;;;;;;;0.10;0.10;;;8.00;99.90;;;;;;4989841;28;20026;-80
2022/01/04 10:18:13;;;;;;;0.52;0.22;;;8.00;99.90;;;;;;4994861;28;20463;-80
2022/01/04 10:20:40;;;;;;;0.20;0.20;;;7.90;99.90;;;;;;4989158;28;20109;-80
2022/01/04 10:23:13;;;;;;;0.10;0.10;;;7.80;99.90;;;;;;4969830;28;20027;-81
2022/01/04 10:25:42;;;;;;;0.08;0.08;;;7.80;99.90;;;;;;4989475;28;20070;-80
2022/01/04 10:28:09;;;;;;;0.30;0.10;;;7.70;99.90;;;;;;4974081;28;20035;-81
2022/01/04 10:30:35;;;;;;;0.10;0.10;;;7.60;99.90;;;;;;5034599;22;20033;-84
2022/01/04 10:33:09;;;;;;;0.17;0.17;;;7.50;99.90;;;;;;5043611;28;20032;-84
2022/01/04 10:35:36;;;;;;;0.00;0.00;;;7.40;99.90;;;;;;5011901;28;20041;-84
2022/01/04 10:38:33;;;;;;;0.20;0.10;;;7.40;99.90;;;;;;5038610;28;20104;-84
2022/01/04 10:41:04;;;;;;;0.00;0.00;;;7.30;99.90;;;;;;5030505;28;20033;-84
2022/01/04 10:43:38;;;;;;;0.35;0.17;;;7.30;99.90;;;;;;4980942;28;20049;-84
2022/01/04 10:46:04;;;;;;;0.22;0.10;;;7.30;99.90;;;;;;5010367;28;20137;-83
2022/01/04 10:48:36;;;;;;;0.30;0.20;;;7.30;99.90;;;;;;4993515;28;20116;-84
2022/01/04 10:51:21;;;;;;;0.20;0.20;;;7.20;99.90;;;;;;4995740;28;20475;-84
2022/01/04 10:54:00;;;;;;;0.15;0.10;;;7.10;99.90;;;;;;5005329;28;20040;-84
2022/01/04 10:56:33;;;;;;;0.50;0.32;;;7.10;99.90;;;;;;5023899;28;20041;-84
2022/01/04 10:59:05;;;;;;;0.63;0.35;;;7.10;99.90;;;;;;5014328;28;20044;-84
2022/01/04 11:01:39;;;;;;;0.55;0.30;;;7.10;99.90;;;;;;5016166;28;20389;-84
2022/01/04 11:04:14;;;;;;;1.55;0.55;;;7.00;99.90;;;;;;5031693;28;20021;-84
2022/01/04 11:06:41;;;;;;;2.30;0.80;;;7.00;99.90;;;;;;5031309;28;20033;-84
2022/01/04 11:09:08;;;;;;;0.68;0.52;;;6.90;99.90;;;;;;5006604;28;20124;-84
2022/01/04 11:11:34;;;;;;;0.90;0.50;;;7.00;99.90;;;;;;5027679;28;20048;-84
2022/01/04 11:14:01;;;;;;;1.60;0.73;;;6.90;99.90;;;;;;4995578;28;20087;-84
2022/01/04 11:16:28;;;;;;;2.40;0.75;;;6.90;99.90;;;;;;5011909;28;20042;-83
2022/01/04 11:18:56;;;;;;;1.25;0.73;;;6.90;99.90;;;;;;4995464;28;20040;-84
2022/01/04 11:21:35;;;;;;;1.38;0.85;;;6.90;99.90;;;;;;4995461;28;20380;-84
2022/01/04 11:24:03;;;;;;;1.50;0.75;;;6.80;99.90;;;;;;5025176;28;20401;-84
2022/01/04 11:26:29;;;;;;;2.75;1.35;;;6.80;99.90;;;;;;5027960;28;20038;-84
2022/01/04 11:28:56;;;;;;;1.75;0.90;;;6.80;99.90;;;;;;5013738;28;20058;-83
2022/01/04 11:31:47;;;;;;;2.03;0.95;;;6.80;99.90;;;;;;5012086;28;20506;-84
2022/01/04 11:34:26;;;;;;;1.67;0.98;;;6.80;99.90;;;;;;5011223;28;20034;-84
2022/01/04 11:36:52;;;;;;;4.00;1.17;;;6.80;99.90;;;;;;5010895;28;20080;-83
2022/01/04 11:39:39;;;;;;;1.60;1.00;;;6.80;99.90;;;;;;4994851;28;20491;-84
2022/01/04 11:42:08;;;;;;;2.83;1.10;;;6.70;99.90;;;;;;5027710;28;20384;-83
2022/01/04 11:44:41;;;;;;;1.20;0.70;;;6.70;99.90;;;;;;5010669;28;20083;-83
2022/01/04 11:47:18;;;;;;;1.73;0.90;;;6.60;99.90;;;;;;5011713;28;20061;-84
2022/01/04 11:50:06;;;;;;;1.85;0.98;;;6.60;99.90;;;;;;5040490;28;20030;-84
2022/01/04 11:52:39;;;;;;;1.42;0.90;;;6.70;99.90;;;;;;5030642;28;20032;-83
2022/01/04 11:55:18;;;;;;;1.50;0.77;;;6.70;99.90;;;;;;5032222;28;20592;-84
2022/01/04 11:57:44;;;;;;;2.13;1.17;;;6.70;99.90;;;;;;5012283;28;20478;-83
2022/01/04 12:00:33;;;;;;;1.42;0.70;;;6.70;99.90;;;;;;5029430;28;20030;-83
2022/01/04 12:03:04;;;;;;;0.90;0.70;;;6.70;99.90;;;;;;5030447;28;20025;-84
2022/01/04 12:05:30;;;;;;;1.42;0.57;;;6.70;99.90;;;;;;5030128;28;20057;-84
2022/01/04 12:07:58;;;;;;;0.98;0.65;;;6.60;99.90;;;;;;5030270;28;20461;-84
2022/01/04 12:10:25;;;;;;;0.60;0.47;;;6.70;99.90;;;;;;5028767;28;20109;-84
2022/01/04 12:12:57;;;;;;;2.03;0.60;;;6.70;99.90;;;;;;5029819;28;20029;-83
2022/01/04 12:15:32;;;;;;;0.90;0.32;;;6.60;99.90;;;;;;5024899;28;20026;-84
2022/01/04 12:18:04;;;;;;;0.40;0.30;;;6.60;99.90;;;;;;5011138;28;20026;-84
2022/01/04 12:20:42;;;;;;;0.57;0.40;;;6.50;99.90;;;;;;5011442;28;20030;-83
2022/01/04 12:23:26;;;;;;;0.22;0.13;;;6.40;99.90;;;;;;5020175;28;20058;-84
2022/01/04 12:28:37;;;;;;;0.43;0.20;;;6.40;99.90;;;;;;5051585;28;20505;-83
2022/01/04 12:31:23;;;;;;;0.25;0.20;;;6.40;99.90;;;;;;5017914;28;20620;-84
2022/01/04 12:34:01;;;;;;;0.30;0.30;;;6.40;99.90;;;;;;5021540;28;20022;-84
2022/01/04 12:36:35;;;;;;;0.47;0.32;;;6.50;99.90;;;;;;5012776;28;20443;-83
2022/01/04 12:39:05;;;;;;;1.52;0.20;;;6.50;99.90;;;;;;5031236;28;20536;-84
2022/01/04 12:41:31;;;;;;;0.35;0.20;;;6.50;99.90;;;;;;5013088;28;20028;-83
2022/01/04 12:43:59;;;;;;;0.30;0.30;;;6.50;99.90;;;;;;5019519;28;20026;-84
2022/01/04 12:46:26;;;;;;;0.50;0.30;;;6.50;99.90;;;;;;5009130;28;20025;-83
2022/01/04 12:48:59;;;;;;;1.05;0.30;;;6.50;99.90;;;;;;5009687;28;20095;-83
2022/01/04 12:51:38;;;;;;;0.30;0.30;;;6.60;99.90;;;;;;4995035;28;20045;-83
2022/01/04 12:54:07;;;;;;;0.50;0.40;;;6.60;99.90;;;;;;4993707;28;20030;-84
2022/01/04 12:56:39;;;;;;;0.75;0.30;;;6.60;99.90;;;;;;5009281;28;20040;-83
2022/01/04 12:59:04;;;;;;;0.95;0.43;;;6.70;99.90;;;;;;5009414;28;20029;-83
2022/01/04 13:01:31;;;;;;;1.70;0.70;;;6.70;99.90;;;;;;5018322;28;20047;-83
2022/01/04 13:03:58;;;;;;;1.05;0.80;;;6.70;99.90;;;;;;5012633;28;20029;-83
2022/01/04 13:06:24;;;;;;;2.25;1.10;;;6.70;99.90;;;;;;5012195;28;20091;-84
2022/01/04 13:08:55;;;;;;;0.70;0.65;;;6.70;99.90;;;;;;5028427;28;20036;-83
2022/01/04 13:11:21;;;;;;;2.65;0.32;;;6.80;99.90;;;;;;5001983;28;20030;-84